Issaquah, WA

3:41 AM PDT on May 27, 2015 (GMT -0700)
Horizon Crest | | Change Station
CLOSE
Current Station
Personal Weather Station
Location: Bellevue, WA
Elevation: 1000 ft
Nearby Weather Stations

Elev 1000 ft 47.56 °N, 122.13 °W | Updated 1 minute ago

Clear
Clear
56.0 °F
Feels Like 56.0 °F
N
0.0
Wind Variable Wind from SSE
Gusts 1.0 mph

Today
High -- | Low -- °F
--% Chance of Precip.
Yesterday
High -- | Low -- °F
Precip. -- in
5:18 AM 8:53 PM
Waxing Gibbous, 66% visible
Pressure 30.06 in
Visibility 9.0 miles
Clouds Clear
Dew Point 53 °F
Humidity 90%
Rainfall 0.00 in
Snow Depth Not available.
UV 0 out of 12
Pollen 8.20 out of 12
Air Quality Not available.
Flu Activity Sporadic
METAR KRNT 270953Z AUTO 16003KT 9SM CLR 13/11 A3005 RMK AO2 SLP180 T01280106

More Conditions Fewer Conditions

Pressure 30.06 in
Visibility 9.0 miles
Clouds Clear
Dew Point 53 °F
Humidity 90%
Rainfall 0.00 in
Snow Depth Not available.
UV 0 out of 12
Pollen 8.20 out of 12
Air Quality Not available.
Flu Activity Sporadic
METAR KRNT 270953Z AUTO 16003KT 9SM CLR 13/11 A3005 RMK AO2 SLP180 T01280106

More Conditions Fewer Conditions

10-Day Weather Forecast

Almanac

Astronomy

May. 27, 2015 Rise Set
Actual Time
Civil Twilight
Nautical Twilight
Astronomical Twilight
Moon
Length of Visible Light
Length of Day
Tomorrow will be .
, % of the Moon is Illuminated

Today's Extremes

State Highs State Lows

Community

WunderPhotos

Upload Photos

1,824,637 photos uploaded!

WunderBlogs® & News

Nearby

Air Quality

  Air Quality AQ Index Pollutant
Not available.

Snow Depth

Station Depth Elevation

Earthquake Activity

City Distance Mag. Time & Date
Minimum magnitude displayed is 2.5.

Coastal Water Temperatures

Place Temperature

Stations

Nearby Weather Stations

Station Location Temp. Windchill Dew Point Humidity Wind Precip. Elev Updated Type